Time;durP1;ratioP1;P1;durP2;ratioP2;P2;SDS_P1;SDS_P2;PMS_P1;PMS_P2;Temp;Humidity;BMP_temperature;BMP_pressure;BME280_temperature;BME280_humidity;BME280_pressure;Samples;Min_cycle;Max_cycle;Signal;HPM_P1;HPM_P2
2024/01/08 00:01:14;;;;;;;3.10;2.77;;;12.60;55.40;;;;;;5052127;28;20455;-77
2024/01/08 00:03:44;;;;;;;2.70;2.50;;;12.60;55.20;;;;;;5044732;28;20478;-76
2024/01/08 00:06:12;;;;;;;3.10;2.70;;;12.60;55.00;;;;;;5053229;28;20471;-76
2024/01/08 00:08:41;;;;;;;3.07;2.87;;;12.60;55.20;;;;;;5044721;28;20443;-76
2024/01/08 00:11:09;;;;;;;4.80;3.10;;;12.60;55.30;;;;;;5032864;28;20494;-76
2024/01/08 00:13:37;;;;;;;3.87;2.77;;;12.60;55.30;;;;;;5032941;28;20448;-77
2024/01/08 00:16:06;;;;;;;4.13;2.97;;;12.60;55.10;;;;;;5047048;28;20477;-76
2024/01/08 00:18:34;;;;;;;4.37;3.00;;;12.60;55.20;;;;;;5047077;28;20446;-76
2024/01/08 00:21:04;;;;;;;3.17;2.90;;;12.50;55.00;;;;;;5051692;28;20450;-76
2024/01/08 00:23:34;;;;;;;3.07;2.87;;;12.60;55.00;;;;;;5050636;28;20485;-75
2024/01/08 00:26:02;;;;;;;4.00;3.53;;;12.60;54.90;;;;;;5046477;28;20987;-75
2024/01/08 00:28:30;;;;;;;3.13;2.83;;;12.60;54.80;;;;;;5041902;28;20518;-76
2024/01/08 00:30:58;;;;;;;5.33;3.13;;;12.50;54.80;;;;;;5041834;28;20506;-74
2024/01/08 00:33:26;;;;;;;3.20;2.90;;;12.50;54.70;;;;;;5040994;28;20447;-74
2024/01/08 00:35:54;;;;;;;3.00;2.80;;;12.50;54.60;;;;;;5046946;28;20484;-75
2024/01/08 00:38:24;;;;;;;4.80;3.13;;;12.50;54.70;;;;;;5034103;28;20471;-74
2024/01/08 00:40:52;;;;;;;5.10;3.20;;;12.50;54.70;;;;;;5030460;28;20501;-74
2024/01/08 00:43:20;;;;;;;3.70;3.00;;;12.50;54.60;;;;;;5049881;28;20456;-74
2024/01/08 00:45:48;;;;;;;3.30;3.00;;;12.50;54.60;;;;;;5038702;28;20530;-74
2024/01/08 00:48:16;;;;;;;3.30;3.00;;;12.50;54.60;;;;;;5030977;28;20436;-74
2024/01/08 00:50:44;;;;;;;3.33;3.03;;;12.50;54.60;;;;;;5039427;28;20501;-74
2024/01/08 00:53:12;;;;;;;3.57;3.20;;;12.40;54.40;;;;;;5042748;28;20462;-74
2024/01/08 00:55:42;;;;;;;6.20;3.07;;;12.40;54.50;;;;;;5048640;28;20516;-74
2024/01/08 00:58:10;;;;;;;3.13;2.93;;;12.50;54.60;;;;;;5046074;28;20450;-74
2024/01/08 01:00:38;;;;;;;4.13;3.27;;;12.40;54.40;;;;;;5041635;28;20518;-74
2024/01/08 01:03:06;;;;;;;3.23;2.93;;;12.40;54.50;;;;;;5046891;28;20458;-74
2024/01/08 01:05:34;;;;;;;3.03;2.83;;;12.40;54.40;;;;;;5032444;28;20466;-75
2024/01/08 01:08:03;;;;;;;3.40;3.10;;;12.40;54.50;;;;;;5051777;28;20454;-74
2024/01/08 01:10:31;;;;;;;3.47;3.03;;;12.40;54.30;;;;;;5049638;28;20475;-74
2024/01/08 01:13:00;;;;;;;3.10;2.90;;;12.40;54.50;;;;;;5050363;28;20461;-74
2024/01/08 01:15:28;;;;;;;3.30;3.00;;;12.40;54.30;;;;;;5050257;28;20455;-74
2024/01/08 01:17:56;;;;;;;3.50;3.20;;;12.40;54.40;;;;;;5051317;28;20462;-74
2024/01/08 01:20:24;;;;;;;3.17;2.97;;;12.40;54.30;;;;;;5041311;28;20440;-74
2024/01/08 01:22:52;;;;;;;3.27;3.00;;;12.30;54.20;;;;;;5025574;28;20468;-74
2024/01/08 01:25:20;;;;;;;4.60;3.53;;;12.30;54.40;;;;;;5030191;28;20460;-74
2024/01/08 01:27:48;;;;;;;4.10;3.30;;;12.30;54.30;;;;;;5041353;28;20443;-74
2024/01/08 01:30:17;;;;;;;5.60;3.50;;;12.30;54.20;;;;;;5045304;28;20541;-74
2024/01/08 01:32:45;;;;;;;2.73;2.50;;;12.30;54.40;;;;;;5063272;28;20449;-74
2024/01/08 01:35:13;;;;;;;3.10;2.90;;;12.30;54.90;;;;;;5046829;28;20477;-74
2024/01/08 01:37:42;;;;;;;3.77;3.00;;;12.30;54.40;;;;;;5049917;28;20438;-74
2024/01/08 01:40:11;;;;;;;4.83;3.40;;;12.30;54.30;;;;;;5038226;28;20435;-74
2024/01/08 01:42:38;;;;;;;3.20;2.97;;;12.30;54.20;;;;;;5046156;28;20496;-74
2024/01/08 01:45:08;;;;;;;3.40;3.10;;;12.30;54.30;;;;;;5064091;28;20533;-74
2024/01/08 01:47:37;;;;;;;3.47;2.83;;;12.30;54.40;;;;;;5067692;28;20465;-74
2024/01/08 01:50:07;;;;;;;3.67;3.27;;;12.30;54.30;;;;;;5067561;28;20477;-74
2024/01/08 01:52:35;;;;;;;4.07;3.60;;;12.30;54.20;;;;;;5041111;28;20455;-74
2024/01/08 01:55:04;;;;;;;4.43;3.63;;;12.30;54.40;;;;;;5049254;28;20528;-74
2024/01/08 01:57:32;;;;;;;4.00;3.60;;;12.30;54.20;;;;;;5050303;28;20501;-75
2024/01/08 02:00:00;;;;;;;4.50;3.93;;;12.30;54.30;;;;;;5049064;28;20526;-74
2024/01/08 02:02:28;;;;;;;3.90;3.40;;;12.30;54.30;;;;;;5049788;28;20446;-75
2024/01/08 02:04:58;;;;;;;3.40;3.13;;;12.30;54.20;;;;;;5050263;28;20470;-74
2024/01/08 02:07:26;;;;;;;4.90;4.07;;;12.30;54.40;;;;;;5050187;28;20441;-74
2024/01/08 02:09:55;;;;;;;3.93;3.57;;;12.30;54.40;;;;;;5044294;28;20455;-74
2024/01/08 02:12:23;;;;;;;4.63;4.10;;;12.30;54.30;;;;;;5045551;28;20450;-74
2024/01/08 02:14:51;;;;;;;4.00;3.60;;;12.30;54.30;;;;;;5049714;28;20486;-74
2024/01/08 02:17:19;;;;;;;6.23;3.70;;;12.30;54.30;;;;;;5049549;28;20450;-74
2024/01/08 02:19:48;;;;;;;6.83;3.50;;;12.30;54.30;;;;;;5049657;28;20806;-74
2024/01/08 02:22:17;;;;;;;4.30;3.90;;;12.20;54.30;;;;;;5053128;28;20445;-74
2024/01/08 02:24:47;;;;;;;3.70;3.40;;;12.30;54.40;;;;;;5053137;28;20482;-74
2024/01/08 02:27:15;;;;;;;4.80;3.60;;;12.30;54.40;;;;;;5045830;28;20459;-74
2024/01/08 02:29:43;;;;;;;5.77;4.10;;;12.30;54.40;;;;;;5051109;28;20481;-74
2024/01/08 02:32:12;;;;;;;4.17;3.77;;;12.30;54.30;;;;;;5052823;28;20520;-74
2024/01/08 02:34:40;;;;;;;6.50;3.90;;;12.30;54.40;;;;;;5052889;28;20491;-74
2024/01/08 02:37:08;;;;;;;4.00;3.60;;;12.20;54.30;;;;;;5052914;28;20449;-74
2024/01/08 02:39:36;;;;;;;6.30;4.10;;;12.20;54.30;;;;;;5053095;28;20450;-74
2024/01/08 02:42:05;;;;;;;4.37;3.93;;;12.30;54.40;;;;;;5052355;28;20542;-75
2024/01/08 02:44:33;;;;;;;4.10;3.70;;;12.20;54.30;;;;;;5050591;28;21013;-74
2024/01/08 02:47:01;;;;;;;4.50;4.00;;;12.20;54.30;;;;;;5044934;28;20525;-74
2024/01/08 02:49:30;;;;;;;6.13;3.47;;;12.20;54.50;;;;;;5052699;28;20442;-74
2024/01/08 02:51:58;;;;;;;4.10;3.70;;;12.20;54.20;;;;;;5051235;28;20524;-75
2024/01/08 02:54:26;;;;;;;4.20;3.70;;;12.20;54.40;;;;;;5051950;28;20478;-74
2024/01/08 02:56:54;;;;;;;4.30;3.90;;;12.20;54.40;;;;;;5052302;28;20532;-74
2024/01/08 02:59:23;;;;;;;3.93;3.53;;;12.20;54.30;;;;;;5051732;28;20468;-74
2024/01/08 03:01:51;;;;;;;4.10;3.70;;;12.20;54.50;;;;;;5051720;28;20519;-74
2024/01/08 03:04:20;;;;;;;3.50;3.20;;;12.20;54.50;;;;;;5061767;28;20507;-75
2024/01/08 03:06:48;;;;;;;3.87;3.47;;;12.20;54.60;;;;;;5057418;28;20469;-75
2024/01/08 03:09:16;;;;;;;5.97;3.73;;;12.20;54.30;;;;;;5052943;28;20450;-75
2024/01/08 03:11:44;;;;;;;3.67;3.27;;;12.20;54.50;;;;;;5052884;28;20513;-74
2024/01/08 03:14:12;;;;;;;3.83;3.53;;;12.20;54.40;;;;;;5053135;28;20529;-74
2024/01/08 03:16:42;;;;;;;4.73;3.40;;;12.20;54.50;;;;;;5050139;28;20513;-74
2024/01/08 03:19:10;;;;;;;4.10;3.50;;;12.20;54.40;;;;;;5032404;28;20436;-74
2024/01/08 03:21:39;;;;;;;11.77;3.63;;;12.20;54.50;;;;;;5039878;28;20451;-74
2024/01/08 03:24:07;;;;;;;3.87;3.00;;;12.20;54.50;;;;;;5051749;28;20945;-74
2024/01/08 03:26:35;;;;;;;3.53;3.13;;;12.20;54.50;;;;;;5051884;28;20462;-75
2024/01/08 03:29:03;;;;;;;3.50;3.20;;;12.20;54.50;;;;;;5052626;28;20537;-74
2024/01/08 03:31:31;;;;;;;3.70;3.10;;;12.20;54.60;;;;;;5051444;28;20471;-75
2024/01/08 03:34:01;;;;;;;3.33;3.03;;;12.20;54.50;;;;;;5051804;28;20841;-75
2024/01/08 03:36:29;;;;;;;3.43;3.13;;;12.20;54.70;;;;;;5052112;28;20467;-75
2024/01/08 03:38:57;;;;;;;4.13;3.13;;;12.20;54.60;;;;;;5047414;28;20454;-75
2024/01/08 03:41:25;;;;;;;3.50;3.20;;;12.20;54.60;;;;;;5045704;28;20437;-75
2024/01/08 03:43:53;;;;;;;3.53;3.23;;;12.20;54.60;;;;;;5052134;28;20542;-75
2024/01/08 03:46:21;;;;;;;3.10;2.80;;;12.20;54.60;;;;;;5051314;28;21015;-75
2024/01/08 03:48:50;;;;;;;3.23;3.00;;;12.20;54.60;;;;;;5051962;28;20449;-75
2024/01/08 03:51:19;;;;;;;3.20;2.90;;;12.20;54.50;;;;;;5050885;28;20471;-75
2024/01/08 03:53:47;;;;;;;3.67;3.23;;;12.20;54.60;;;;;;5051657;28;20547;-75
2024/01/08 03:56:16;;;;;;;4.10;3.10;;;12.20;54.60;;;;;;5045221;28;20489;-75
2024/01/08 03:58:44;;;;;;;3.13;2.83;;;12.20;54.50;;;;;;5049001;28;20453;-76
2024/01/08 04:01:12;;;;;;;2.80;2.60;;;12.20;54.70;;;;;;5051095;28;20501;-75
2024/01/08 04:03:40;;;;;;;4.70;3.30;;;12.20;54.70;;;;;;5051376;28;20442;-75
2024/01/08 04:06:08;;;;;;;4.13;2.93;;;12.20;54.60;;;;;;5051389;28;20508;-75
2024/01/08 04:08:38;;;;;;;3.93;3.20;;;12.20;54.70;;;;;;5050830;28;20446;-75
2024/01/08 04:11:06;;;;;;;3.03;2.83;;;12.20;54.60;;;;;;5050175;28;20447;-75
2024/01/08 04:13:34;;;;;;;3.20;2.97;;;12.20;54.60;;;;;;5043650;28;20923;-75
2024/01/08 04:16:03;;;;;;;4.40;3.17;;;12.20;54.60;;;;;;5050431;28;20474;-75
2024/01/08 04:18:31;;;;;;;2.87;2.63;;;12.20;54.60;;;;;;5051120;28;20470;-75
2024/01/08 04:20:58;;;;;;;3.10;2.87;;;12.20;54.60;;;;;;5050487;28;20526;-75
2024/01/08 04:23:27;;;;;;;3.30;3.00;;;12.20;54.60;;;;;;5050849;28;20515;-76
2024/01/08 04:25:56;;;;;;;2.90;2.60;;;12.20;54.70;;;;;;5050526;28;20461;-75
2024/01/08 04:28:23;;;;;;;2.80;2.60;;;12.20;54.60;;;;;;5049473;28;20454;-75
2024/01/08 04:30:51;;;;;;;2.73;2.53;;;12.10;54.60;;;;;;5042051;28;20439;-75
2024/01/08 04:33:20;;;;;;;3.10;2.73;;;12.20;54.60;;;;;;5050434;28;20562;-75
2024/01/08 04:35:48;;;;;;;3.17;2.93;;;12.20;54.70;;;;;;5045867;28;20473;-74
2024/01/08 04:38:16;;;;;;;3.03;2.80;;;12.20;54.70;;;;;;5050744;28;20478;-75
2024/01/08 04:40:45;;;;;;;2.50;2.30;;;12.20;54.80;;;;;;5050065;28;20446;-75
2024/01/08 04:43:14;;;;;;;3.60;3.00;;;12.20;54.70;;;;;;5048517;28;20454;-75
2024/01/08 04:45:42;;;;;;;2.57;2.37;;;12.20;54.60;;;;;;5041853;28;20534;-75
2024/01/08 04:48:11;;;;;;;2.60;2.40;;;12.20;54.60;;;;;;5050914;28;20446;-74
2024/01/08 04:50:39;;;;;;;2.87;2.60;;;12.20;54.70;;;;;;5050069;28;20461;-75
2024/01/08 04:53:08;;;;;;;3.37;2.60;;;12.20;54.60;;;;;;5050326;28;20469;-75
2024/01/08 04:55:36;;;;;;;2.60;2.40;;;12.20;54.70;;;;;;5050161;28;20540;-75
2024/01/08 04:58:06;;;;;;;2.60;2.40;;;12.20;54.80;;;;;;5050315;28;20453;-75
2024/01/08 05:00:36;;;;;;;2.90;2.70;;;12.20;54.70;;;;;;5048798;28;20447;-75
2024/01/08 05:03:04;;;;;;;2.03;1.93;;;12.20;54.70;;;;;;5041516;28;20426;-75
2024/01/08 05:05:32;;;;;;;2.40;2.20;;;12.20;54.70;;;;;;5050376;28;20470;-75
2024/01/08 05:08:00;;;;;;;2.83;2.60;;;12.20;54.70;;;;;;5050600;28;20526;-75
2024/01/08 05:10:28;;;;;;;2.60;2.37;;;12.20;54.80;;;;;;5050148;28;20473;-75
2024/01/08 05:12:56;;;;;;;3.63;2.80;;;12.20;54.70;;;;;;5050399;28;20474;-74
2024/01/08 05:15:24;;;;;;;3.03;2.37;;;12.20;54.70;;;;;;5049844;28;21048;-75
2024/01/08 05:17:53;;;;;;;3.17;2.97;;;12.20;54.70;;;;;;5048661;28;20486;-75
2024/01/08 05:20:21;;;;;;;2.40;2.30;;;12.20;54.70;;;;;;5029704;28;20436;-74
2024/01/08 05:22:49;;;;;;;2.80;2.60;;;12.20;54.70;;;;;;5030243;28;20439;-74
2024/01/08 05:25:17;;;;;;;2.30;2.17;;;12.20;54.80;;;;;;5031655;28;20467;-74
2024/01/08 05:27:45;;;;;;;2.60;2.40;;;12.20;54.60;;;;;;5033124;28;20507;-74
2024/01/08 05:30:14;;;;;;;2.97;2.70;;;12.10;54.70;;;;;;5041745;28;20442;-74
2024/01/08 05:32:42;;;;;;;3.20;2.63;;;12.20;54.70;;;;;;5058268;28;21057;-74
2024/01/08 05:35:11;;;;;;;2.40;2.30;;;12.10;54.70;;;;;;5055184;28;20538;-74
2024/01/08 05:37:39;;;;;;;3.00;2.20;;;12.10;54.60;;;;;;5046229;28;20470;-74
2024/01/08 05:40:08;;;;;;;2.73;2.50;;;12.10;54.60;;;;;;5049669;28;20594;-74
2024/01/08 05:42:36;;;;;;;2.20;2.10;;;12.10;54.60;;;;;;5042636;28;20463;-74
2024/01/08 05:45:05;;;;;;;3.43;2.60;;;12.10;54.70;;;;;;5036246;28;20463;-75
2024/01/08 05:47:34;;;;;;;2.43;2.23;;;12.10;54.60;;;;;;5071432;28;20453;-74
2024/01/08 05:50:04;;;;;;;4.03;2.40;;;12.10;54.80;;;;;;5070432;28;20434;-74
2024/01/08 05:52:33;;;;;;;2.30;2.10;;;12.20;54.60;;;;;;5071129;28;20465;-74
2024/01/08 05:55:01;;;;;;;2.23;2.13;;;12.10;54.60;;;;;;5054094;28;20503;-74
2024/01/08 05:57:29;;;;;;;5.70;2.53;;;12.20;54.80;;;;;;5100519;23;20505;-79
2024/01/08 05:59:57;;;;;;;2.37;2.23;;;12.20;54.80;;;;;;5071765;28;20449;-79
2024/01/08 06:02:25;;;;;;;2.30;2.10;;;12.20;54.60;;;;;;5059566;28;20875;-78
2024/01/08 06:04:52;;;;;;;3.97;2.40;;;12.20;54.70;;;;;;5072123;28;20445;-78
2024/01/08 06:07:20;;;;;;;2.50;2.30;;;12.10;54.60;;;;;;5086066;28;20507;-78
2024/01/08 06:09:49;;;;;;;3.17;2.27;;;12.10;54.70;;;;;;5079782;28;20844;-77
2024/01/08 06:12:17;;;;;;;2.33;2.13;;;12.10;54.70;;;;;;5085255;28;20533;-78
2024/01/08 06:14:46;;;;;;;2.13;2.00;;;12.10;54.70;;;;;;5080144;28;20520;-78
2024/01/08 06:17:14;;;;;;;2.03;1.93;;;12.10;54.70;;;;;;5075803;28;20479;-78
2024/01/08 06:19:42;;;;;;;2.20;2.07;;;12.10;54.80;;;;;;5078688;28;20438;-78
2024/01/08 06:22:10;;;;;;;2.43;2.23;;;12.10;54.60;;;;;;5085183;28;20509;-78
2024/01/08 06:24:38;;;;;;;3.73;2.33;;;12.10;54.60;;;;;;5078783;28;20439;-77
2024/01/08 06:27:07;;;;;;;2.53;2.33;;;12.20;54.80;;;;;;5075129;28;20458;-78
2024/01/08 06:29:35;;;;;;;3.30;2.10;;;12.20;54.80;;;;;;5082097;28;20508;-78
2024/01/08 06:32:04;;;;;;;2.30;2.20;;;12.20;54.80;;;;;;5080062;28;20441;-78
2024/01/08 06:34:32;;;;;;;2.27;2.17;;;12.10;54.50;;;;;;5081255;28;20479;-78
2024/01/08 06:37:00;;;;;;;2.50;2.30;;;12.10;54.80;;;;;;5092307;28;20460;-78
2024/01/08 06:39:28;;;;;;;5.00;2.03;;;12.10;54.70;;;;;;5084751;28;20436;-78
2024/01/08 06:41:56;;;;;;;2.40;2.20;;;12.20;54.90;;;;;;5085250;28;20477;-78
2024/01/08 06:44:25;;;;;;;2.87;2.40;;;12.20;55.00;;;;;;5083143;28;20564;-78
2024/01/08 06:46:54;;;;;;;2.00;1.90;;;12.20;54.70;;;;;;5091399;28;20475;-77
2024/01/08 06:49:22;;;;;;;2.23;2.03;;;12.10;54.80;;;;;;5087344;28;20441;-77
2024/01/08 06:51:50;;;;;;;1.97;1.80;;;12.10;54.70;;;;;;5074039;28;20442;-78
2024/01/08 06:54:18;;;;;;;2.20;2.00;;;12.20;54.80;;;;;;5092613;28;20489;-77
2024/01/08 06:56:46;;;;;;;2.40;2.20;;;12.20;54.80;;;;;;5084833;28;20548;-77
2024/01/08 06:59:15;;;;;;;2.40;2.20;;;12.20;54.90;;;;;;5083324;28;20445;-77
2024/01/08 07:01:45;;;;;;;2.20;1.97;;;12.20;54.70;;;;;;5079934;28;20453;-77
2024/01/08 07:04:13;;;;;;;2.10;2.00;;;12.20;54.90;;;;;;5080186;28;20445;-78
2024/01/08 07:06:41;;;;;;;2.63;2.30;;;12.20;54.90;;;;;;5085012;28;20499;-77
2024/01/08 07:09:10;;;;;;;3.97;2.00;;;12.20;54.90;;;;;;5092319;28;20441;-77
2024/01/08 07:11:38;;;;;;;2.03;1.77;;;12.20;54.80;;;;;;5078842;28;20442;-78
2024/01/08 07:14:06;;;;;;;3.27;2.20;;;12.20;54.80;;;;;;5089739;28;20480;-78
2024/01/08 07:16:34;;;;;;;2.03;1.93;;;12.20;55.00;;;;;;5080001;28;20523;-77
2024/01/08 07:19:05;;;;;;;1.80;1.70;;;12.30;54.90;;;;;;5081138;28;20477;-78
2024/01/08 07:21:33;;;;;;;2.10;2.00;;;12.30;54.90;;;;;;5076692;28;20481;-78
2024/01/08 07:24:01;;;;;;;2.23;2.13;;;12.30;55.00;;;;;;5088817;28;20904;-78
2024/01/08 07:26:29;;;;;;;2.17;2.07;;;12.30;55.00;;;;;;5073114;28;20461;-78
2024/01/08 07:28:58;;;;;;;2.17;1.80;;;12.30;54.90;;;;;;5089383;28;20490;-77
2024/01/08 07:31:25;;;;;;;1.73;1.63;;;12.30;54.80;;;;;;5080414;28;20422;-77
2024/01/08 07:33:54;;;;;;;2.87;2.00;;;12.30;54.80;;;;;;5086777;28;20530;-78
2024/01/08 07:36:23;;;;;;;2.00;1.90;;;12.30;54.90;;;;;;5083360;28;20480;-79
2024/01/08 07:38:51;;;;;;;1.97;1.87;;;12.30;54.90;;;;;;5080011;28;20509;-77
2024/01/08 07:41:19;;;;;;;2.20;2.10;;;12.30;54.80;;;;;;5083565;28;20529;-79
2024/01/08 07:43:47;;;;;;;2.17;2.07;;;12.30;54.90;;;;;;5085950;28;20429;-79
2024/01/08 07:46:15;;;;;;;1.93;1.80;;;12.30;54.90;;;;;;5081553;28;20469;-79
2024/01/08 07:48:43;;;;;;;2.00;1.90;;;12.30;55.00;;;;;;5076214;28;20479;-79
2024/01/08 07:51:11;;;;;;;2.53;2.20;;;12.30;55.00;;;;;;5081924;28;20533;-79
2024/01/08 07:53:40;;;;;;;2.20;2.10;;;12.40;55.10;;;;;;5079681;28;20555;-80
2024/01/08 07:56:09;;;;;;;3.03;1.80;;;12.40;55.10;;;;;;5076145;28;20468;-79
2024/01/08 07:58:37;;;;;;;2.30;2.10;;;12.40;55.10;;;;;;5072082;28;20441;-79
2024/01/08 08:01:12;;;;;;;1.80;1.70;;;12.40;55.00;;;;;;5071590;28;20460;-78
2024/01/08 08:03:40;;;;;;;2.27;2.07;;;12.40;55.00;;;;;;5074752;28;20483;-78
2024/01/08 08:06:08;;;;;;;2.20;1.93;;;12.40;55.00;;;;;;5076192;28;20489;-76
2024/01/08 08:08:36;;;;;;;3.70;1.87;;;12.30;54.90;;;;;;5073378;28;20468;-77
2024/01/08 08:11:06;;;;;;;1.90;1.80;;;12.40;55.10;;;;;;5070579;28;20438;-78
2024/01/08 08:13:34;;;;;;;2.10;2.00;;;12.40;55.00;;;;;;5070658;28;20571;-78
2024/01/08 08:16:03;;;;;;;1.90;1.80;;;12.30;55.00;;;;;;5087205;28;20511;-77
2024/01/08 08:18:32;;;;;;;3.87;2.33;;;12.40;55.00;;;;;;5079926;28;20441;-77
2024/01/08 08:21:03;;;;;;;1.73;1.63;;;12.40;54.90;;;;;;5074087;28;20473;-77
2024/01/08 08:23:32;;;;;;;3.37;2.00;;;12.40;55.10;;;;;;5079174;28;20524;-77
2024/01/08 08:26:01;;;;;;;2.23;1.93;;;12.40;55.10;;;;;;5070915;28;20474;-77
2024/01/08 08:28:30;;;;;;;2.67;2.10;;;12.40;55.10;;;;;;5074976;28;20502;-77
2024/01/08 08:30:58;;;;;;;2.67;2.13;;;12.40;55.00;;;;;;5076721;28;20549;-78
2024/01/08 08:33:26;;;;;;;3.17;2.40;;;12.40;55.00;;;;;;5074743;28;20444;-78
2024/01/08 08:35:54;;;;;;;1.80;1.70;;;12.50;55.10;;;;;;5077880;28;20456;-78
2024/01/08 08:38:22;;;;;;;2.20;2.10;;;12.50;55.00;;;;;;5072957;28;20445;-76
2024/01/08 08:40:50;;;;;;;2.33;2.17;;;12.50;55.60;;;;;;5072253;28;20445;-78
2024/01/08 08:43:18;;;;;;;2.67;2.03;;;12.50;54.90;;;;;;5080676;28;20552;-78
2024/01/08 08:45:47;;;;;;;2.20;2.10;;;12.50;55.00;;;;;;5090880;28;20548;-77
2024/01/08 08:48:16;;;;;;;2.10;2.00;;;12.50;55.00;;;;;;5080409;28;20441;-78
2024/01/08 08:50:44;;;;;;;3.30;2.40;;;12.50;55.00;;;;;;5073718;28;20487;-78
2024/01/08 08:53:12;;;;;;;2.37;2.17;;;12.50;55.00;;;;;;5078959;28;20525;-78
2024/01/08 08:55:40;;;;;;;2.20;2.07;;;12.50;54.90;;;;;;5077395;28;20496;-77
2024/01/08 08:58:09;;;;;;;2.77;2.20;;;12.50;54.90;;;;;;5083566;28;20537;-79
2024/01/08 09:00:37;;;;;;;5.23;2.50;;;12.50;54.80;;;;;;5086794;28;20437;-80
2024/01/08 09:03:06;;;;;;;2.90;2.60;;;12.50;54.70;;;;;;5084448;28;20428;-81
2024/01/08 09:05:34;;;;;;;2.50;2.30;;;12.50;54.70;;;;;;5086561;28;20520;-79
2024/01/08 09:08:10;;;;;;;2.73;2.50;;;12.50;54.80;;;;;;5072078;28;20448;-79
2024/01/08 09:10:38;;;;;;;4.93;2.20;;;12.60;54.60;;;;;;5086821;28;20446;-78
2024/01/08 09:13:06;;;;;;;2.63;2.43;;;12.60;54.80;;;;;;5075146;28;20564;-79
2024/01/08 09:15:35;;;;;;;2.77;2.30;;;12.60;54.60;;;;;;5078227;28;20568;-80
2024/01/08 09:18:03;;;;;;;2.53;2.37;;;12.60;54.60;;;;;;5071822;28;20924;-81
2024/01/08 09:20:33;;;;;;;2.73;2.53;;;12.60;54.60;;;;;;5082078;28;20449;-81
2024/01/08 09:23:01;;;;;;;2.70;2.50;;;12.70;54.60;;;;;;5095755;28;20437;-81
2024/01/08 09:25:29;;;;;;;3.00;2.70;;;12.70;54.70;;;;;;5087215;28;20429;-77
2024/01/08 09:27:56;;;;;;;2.27;2.17;;;12.70;54.70;;;;;;5089344;28;20473;-77
2024/01/08 09:30:24;;;;;;;3.33;2.47;;;12.70;54.70;;;;;;5076138;28;20439;-78
2024/01/08 09:32:52;;;;;;;4.47;2.03;;;12.70;54.70;;;;;;5087761;28;20437;-77
2024/01/08 09:35:20;;;;;;;3.87;2.40;;;12.70;54.70;;;;;;5089310;28;20988;-77
2024/01/08 09:37:49;;;;;;;4.33;2.40;;;12.70;54.80;;;;;;5082735;28;20492;-78
2024/01/08 09:40:17;;;;;;;2.60;2.40;;;12.70;54.80;;;;;;5092887;28;20518;-78
2024/01/08 09:42:45;;;;;;;2.70;2.27;;;12.80;54.90;;;;;;5089563;28;20437;-80
2024/01/08 09:45:13;;;;;;;2.23;2.03;;;12.80;54.90;;;;;;5089621;28;20437;-79
2024/01/08 09:47:41;;;;;;;3.67;2.27;;;12.80;54.80;;;;;;5089050;28;20516;-80
2024/01/08 09:50:10;;;;;;;2.77;2.57;;;12.80;54.80;;;;;;5090012;28;20463;-84
2024/01/08 09:52:38;;;;;;;2.80;2.37;;;12.90;54.90;;;;;;5090388;28;20447;-77
2024/01/08 09:55:14;;;;;;;2.67;2.47;;;12.90;54.90;;;;;;5083418;28;20560;-78
2024/01/08 09:57:42;;;;;;;3.53;2.77;;;12.80;54.70;;;;;;5091610;28;20491;-78
2024/01/08 10:00:11;;;;;;;4.30;2.50;;;12.80;54.70;;;;;;5083313;28;20473;-78
2024/01/08 10:02:39;;;;;;;2.53;2.33;;;12.90;54.80;;;;;;5094451;28;20428;-79
2024/01/08 10:05:09;;;;;;;2.73;2.40;;;12.80;54.90;;;;;;5091942;28;20440;-79
2024/01/08 10:07:38;;;;;;;3.27;2.30;;;12.90;54.90;;;;;;5100624;28;20490;-78
2024/01/08 10:10:08;;;;;;;2.50;2.30;;;12.90;54.90;;;;;;5087059;28;20446;-78
2024/01/08 10:12:48;;;;;;;3.23;2.47;;;12.90;54.80;;;;;;5096328;28;20485;-78
2024/01/08 10:15:18;;;;;;;5.10;2.20;;;12.90;54.80;;;;;;5096273;28;20510;-79
2024/01/08 10:17:48;;;;;;;3.23;2.37;;;12.90;54.80;;;;;;5089678;28;20484;-80
2024/01/08 10:20:17;;;;;;;2.43;2.33;;;12.90;54.70;;;;;;5091206;28;20464;-79
2024/01/08 10:23:03;;;;;;;5.13;2.63;;;12.90;54.80;;;;;;5086101;28;20520;-80
2024/01/08 10:25:33;;;;;;;2.30;2.20;;;12.90;54.80;;;;;;5088041;28;20451;-79
2024/01/08 10:28:03;;;;;;;2.50;2.30;;;12.90;55.00;;;;;;5089238;28;20445;-79
2024/01/08 10:30:31;;;;;;;3.50;2.57;;;12.90;54.90;;;;;;5086619;28;20449;-79
2024/01/08 10:33:00;;;;;;;2.40;2.20;;;13.00;55.00;;;;;;5093727;28;20449;-79
2024/01/08 10:35:30;;;;;;;2.50;2.30;;;13.00;55.00;;;;;;5090140;28;20473;-78
2024/01/08 10:38:00;;;;;;;2.03;1.93;;;13.00;55.00;;;;;;5098815;28;20445;-78
2024/01/08 10:40:29;;;;;;;2.17;1.97;;;13.10;55.20;;;;;;5097274;28;20477;-80
2024/01/08 10:42:58;;;;;;;2.40;2.20;;;13.10;55.20;;;;;;5092062;28;20604;-79
2024/01/08 10:45:31;;;;;;;4.60;2.27;;;13.10;55.10;;;;;;5096165;28;20471;-79
2024/01/08 10:48:04;;;;;;;2.83;2.63;;;13.10;55.00;;;;;;5096219;28;20437;-80
2024/01/08 10:50:33;;;;;;;2.33;2.00;;;13.20;55.20;;;;;;5089019;28;20444;-79
2024/01/08 10:53:02;;;;;;;3.90;2.50;;;13.20;55.30;;;;;;5091625;28;20557;-82
2024/01/08 10:55:30;;;;;;;2.40;2.20;;;13.20;55.20;;;;;;5093223;28;20496;-83
2024/01/08 10:58:02;;;;;;;2.07;1.97;;;13.40;55.90;;;;;;5099165;28;20453;-83
2024/01/08 11:00:32;;;;;;;2.27;2.10;;;13.70;55.90;;;;;;5098074;28;20440;-80
2024/01/08 11:03:02;;;;;;;2.60;2.20;;;13.90;55.50;;;;;;5085503;28;20513;-82
2024/01/08 11:05:33;;;;;;;4.20;2.20;;;14.10;55.50;;;;;;5088831;28;20438;-82
2024/01/08 11:08:01;;;;;;;2.60;2.40;;;14.20;55.20;;;;;;5091663;28;20449;-78
2024/01/08 11:10:30;;;;;;;4.20;2.40;;;14.30;55.30;;;;;;5088627;28;20476;-78
2024/01/08 11:12:58;;;;;;;2.83;2.60;;;14.30;55.30;;;;;;5085001;28;20529;-77
2024/01/08 11:15:26;;;;;;;2.53;2.33;;;14.30;55.40;;;;;;5071984;28;20527;-79
2024/01/08 11:17:59;;;;;;;3.13;2.30;;;14.30;55.50;;;;;;5094398;28;20433;-86
2024/01/08 11:20:45;;;;;;;2.40;1.97;;;14.40;55.50;;;;;;5084029;28;20453;-79
2024/01/08 11:23:38;;;;;;;2.33;2.13;;;14.40;55.40;;;;;;5086818;28;20440;-82
2024/01/08 11:26:10;;;;;;;4.40;2.20;;;14.40;55.60;;;;;;5104638;28;20451;-80
2024/01/08 11:28:40;;;;;;;4.00;2.47;;;14.40;55.50;;;;;;5100482;28;20437;-80
2024/01/08 11:31:35;;;;;;;2.60;2.40;;;14.50;55.70;;;;;;5094530;28;20471;-80
2024/01/08 11:34:18;;;;;;;2.80;2.50;;;14.40;55.50;;;;;;5091196;28;20444;-80
2024/01/08 11:36:47;;;;;;;2.47;2.20;;;14.40;55.80;;;;;;5088533;28;20500;-79
2024/01/08 11:39:17;;;;;;;2.47;2.37;;;14.50;56.00;;;;;;5091925;28;20440;-80
2024/01/08 11:41:45;;;;;;;3.70;2.60;;;14.80;56.80;;;;;;5085328;28;20464;-80
2024/01/08 11:44:15;;;;;;;2.47;2.27;;;15.30;56.90;;;;;;5081725;28;20433;-80
2024/01/08 11:46:44;;;;;;;2.43;2.23;;;15.70;56.70;;;;;;5090348;28;20555;-82
2024/01/08 11:49:14;;;;;;;2.83;2.50;;;16.20;56.70;;;;;;5083297;28;20495;-78
2024/01/08 11:51:42;;;;;;;3.33;2.13;;;16.60;56.50;;;;;;5087151;28;20453;-78
2024/01/08 11:54:13;;;;;;;3.27;2.53;;;16.80;55.50;;;;;;5074567;28;20548;-75
2024/01/08 11:56:41;;;;;;;3.67;2.33;;;17.10;55.70;;;;;;5081388;28;20560;-78
2024/01/08 11:59:09;;;;;;;2.37;2.20;;;17.40;55.40;;;;;;5083931;28;20469;-76
2024/01/08 12:01:37;;;;;;;2.37;2.27;;;17.70;55.50;;;;;;5078025;28;20477;-76
2024/01/08 12:04:05;;;;;;;2.50;2.10;;;18.00;55.50;;;;;;5091182;28;20459;-76
2024/01/08 12:06:34;;;;;;;2.50;2.10;;;18.40;55.40;;;;;;5079106;28;20473;-76
2024/01/08 12:09:03;;;;;;;3.03;2.73;;;18.70;55.40;;;;;;5082808;28;20429;-77
2024/01/08 12:11:31;;;;;;;2.07;1.90;;;19.00;55.30;;;;;;5087028;28;20473;-76
2024/01/08 12:13:59;;;;;;;3.90;2.30;;;19.20;54.90;;;;;;5080036;28;20506;-78
2024/01/08 12:16:27;;;;;;;4.63;2.53;;;19.50;54.80;;;;;;5079907;28;20480;-77
2024/01/08 12:18:55;;;;;;;3.03;2.33;;;19.70;54.50;;;;;;5087789;28;20464;-78
2024/01/08 12:21:23;;;;;;;6.70;2.17;;;20.00;54.50;;;;;;5082347;28;20440;-76
2024/01/08 12:23:58;;;;;;;2.10;2.00;;;20.20;54.30;;;;;;5087131;28;20463;-79
2024/01/08 12:26:27;;;;;;;2.80;2.30;;;20.40;54.20;;;;;;5085902;28;20584;-78
2024/01/08 12:28:55;;;;;;;2.10;2.00;;;20.60;54.00;;;;;;5076013;28;20434;-77
2024/01/08 12:31:26;;;;;;;2.90;1.93;;;20.80;53.90;;;;;;5069565;28;20466;-78
2024/01/08 12:33:54;;;;;;;2.00;1.90;;;21.00;53.80;;;;;;5083809;28;20516;-77
2024/01/08 12:36:22;;;;;;;2.33;2.23;;;21.10;53.90;;;;;;5080374;28;20498;-81
2024/01/08 12:38:49;;;;;;;2.47;2.23;;;21.40;53.80;;;;;;5081801;28;20822;-77
2024/01/08 12:41:20;;;;;;;2.23;2.03;;;21.50;53.60;;;;;;5089543;28;20486;-79
2024/01/08 12:43:48;;;;;;;2.37;2.27;;;21.60;53.60;;;;;;5078647;28;20437;-77
2024/01/08 12:46:16;;;;;;;2.43;2.23;;;21.70;53.40;;;;;;5070662;28;20428;-78
2024/01/08 12:48:44;;;;;;;1.90;1.80;;;21.90;53.50;;;;;;5087283;28;20452;-77
2024/01/08 12:51:13;;;;;;;3.50;2.20;;;22.00;53.40;;;;;;5080997;28;20540;-76
2024/01/08 12:53:41;;;;;;;2.30;2.10;;;22.20;53.50;;;;;;5088346;28;20444;-77
2024/01/08 12:56:09;;;;;;;3.47;3.00;;;22.20;53.50;;;;;;5088842;28;20546;-79